Time;durP1;ratioP1;P1;durP2;ratioP2;P2;SDS_P1;SDS_P2;PMS_P1;PMS_P2;Temp;Humidity;BMP_temperature;BMP_pressure;BME280_temperature;BME280_humidity;BME280_pressure;Samples;Min_cycle;Max_cycle;Signal;HPM_P1;HPM_P2
2022/06/07 00:02:06;;;;;;;5.35;3.25;;;13.30;99.90;13.10;98718.00;;;;4923432;28;83623;-55
2022/06/07 00:04:34;;;;;;;9.45;3.58;;;13.20;99.90;13.10;98731.00;;;;4927481;28;82288;-57
2022/06/07 00:07:00;;;;;;;11.02;4.10;;;13.10;99.90;13.00;98735.00;;;;4938742;28;81996;-57
2022/06/07 00:09:26;;;;;;;7.13;3.70;;;13.10;99.90;12.90;98725.00;;;;4937447;28;82187;-56
2022/06/07 00:11:53;;;;;;;8.55;3.72;;;13.00;99.90;12.90;98728.00;;;;4935807;28;82669;-54
2022/06/07 00:14:19;;;;;;;6.20;3.40;;;13.00;99.90;12.90;98727.00;;;;4926659;28;82349;-53
2022/06/07 00:16:46;;;;;;;7.45;3.97;;;12.90;99.90;12.90;98729.00;;;;4929683;28;82320;-52
2022/06/07 00:19:12;;;;;;;6.63;4.25;;;12.90;99.90;12.90;98726.00;;;;4929422;28;81690;-56
2022/06/07 00:21:38;;;;;;;10.57;4.38;;;12.90;99.90;12.90;98724.00;;;;4927692;28;82446;-54
2022/06/07 00:24:05;;;;;;;8.85;4.45;;;12.90;99.90;12.90;98729.00;;;;4930663;28;82519;-55
2022/06/07 00:26:33;;;;;;;6.35;4.43;;;12.90;99.90;12.90;98733.00;;;;4933146;28;83802;-56
2022/06/07 00:29:00;;;;;;;12.27;4.82;;;12.80;99.90;12.80;98717.00;;;;4909802;28;83811;-55
2022/06/07 00:31:27;;;;;;;8.82;5.03;;;12.80;99.90;12.70;98737.00;;;;4929846;28;83763;-55
2022/06/07 00:33:54;;;;;;;8.05;5.28;;;12.80;99.90;12.70;98731.00;;;;4919245;28;86311;-57
2022/06/07 00:36:20;;;;;;;7.78;4.57;;;12.70;99.90;12.60;98734.00;;;;4904953;28;82539;-56
2022/06/07 00:38:47;;;;;;;12.80;4.43;;;12.60;99.90;12.60;98723.00;;;;4930792;28;82708;-58
2022/06/07 00:41:13;;;;;;;8.95;4.72;;;12.60;99.90;12.70;98733.00;;;;4911757;28;82643;-55
2022/06/07 00:43:42;;;;;;;8.18;4.30;;;12.70;99.90;12.70;98738.00;;;;4924403;28;82429;-57
2022/06/07 00:46:11;;;;;;;7.47;4.65;;;12.70;99.90;12.70;98729.00;;;;4916220;28;82402;-57
2022/06/07 00:48:38;;;;;;;6.03;4.20;;;12.70;99.90;12.60;98727.00;;;;4934069;28;82924;-53
2022/06/07 00:51:11;;;;;;;6.28;3.70;;;12.70;99.90;12.60;98731.00;;;;4934071;28;83666;-57
2022/06/07 00:53:37;;;;;;;8.93;4.40;;;12.70;99.90;12.60;98741.00;;;;4922501;28;83278;-57
2022/06/07 00:56:20;;;;;;;7.78;4.30;;;12.60;99.90;12.50;98735.00;;;;4904723;28;82601;-55
2022/06/07 00:58:48;;;;;;;7.15;4.05;;;12.60;99.90;12.50;98736.00;;;;4915013;28;83312;-55
2022/06/07 01:01:14;;;;;;;8.77;4.43;;;12.50;99.90;12.50;98729.00;;;;4932842;28;83221;-57
2022/06/07 01:03:45;;;;;;;7.25;4.82;;;12.50;99.90;12.50;98723.00;;;;4896473;28;84745;-62
2022/06/07 01:11:43;;;;;;;7.75;4.50;;;12.40;99.90;12.40;98727.00;;;;4928946;28;82393;-62
2022/06/07 01:14:09;;;;;;;9.52;4.65;;;12.40;99.90;12.40;98720.00;;;;4923645;28;82422;-62
2022/06/07 01:16:35;;;;;;;9.27;4.20;;;12.40;99.90;12.30;98725.00;;;;4919484;28;83362;-62
2022/06/07 01:19:02;;;;;;;5.07;3.42;;;12.30;99.90;12.30;98721.00;;;;4912547;28;83470;-62
2022/06/07 01:21:36;;;;;;;8.82;4.20;;;12.30;99.90;12.30;98719.00;;;;4916261;28;82432;-62
2022/06/07 01:24:05;;;;;;;9.23;4.25;;;12.30;99.90;12.30;98724.00;;;;4912576;28;82889;-63
2022/06/07 01:26:40;;;;;;;10.43;4.45;;;12.30;99.90;12.30;98716.00;;;;4933066;28;82093;-63
2022/06/07 01:29:08;;;;;;;9.32;4.35;;;12.30;99.90;12.20;98728.00;;;;4918974;28;83454;-62
2022/06/07 01:31:35;;;;;;;10.07;4.78;;;12.30;99.90;12.20;98731.00;;;;4931370;28;82698;-63
2022/06/07 01:34:01;;;;;;;8.65;4.45;;;12.30;99.90;12.20;98731.00;;;;4928545;28;83343;-63
2022/06/07 01:36:28;;;;;;;10.95;4.35;;;12.20;99.90;12.20;98729.00;;;;4930687;28;82261;-63
2022/06/07 01:41:55;;;;;;;9.55;3.95;;;12.20;99.90;12.10;98744.00;;;;4935193;28;83677;-63
2022/06/07 01:44:47;;;;;;;11.25;4.22;;;12.20;99.90;12.20;98750.00;;;;4923569;28;83338;-63
2022/06/07 01:47:21;;;;;;;5.78;3.70;;;12.20;99.90;12.20;98746.00;;;;4887937;28;82095;-63
2022/06/07 01:49:52;;;;;;;10.10;4.25;;;12.20;99.90;12.20;98734.00;;;;4911550;28;82968;-54
2022/06/07 01:52:24;;;;;;;8.15;4.00;;;12.20;99.90;12.20;98732.00;;;;4904827;28;82458;-54
2022/06/07 01:54:54;;;;;;;9.32;3.63;;;12.20;99.90;12.40;98725.00;;;;4910686;28;82346;-56
2022/06/07 01:57:22;;;;;;;6.95;3.17;;;12.40;99.90;12.80;98730.00;;;;4912118;28;82169;-53
2022/06/07 01:59:50;;;;;;;5.80;3.25;;;12.70;99.90;13.20;98732.00;;;;4911528;28;82308;-55
2022/06/07 02:02:24;;;;;;;8.60;3.55;;;13.20;99.90;13.80;98729.00;;;;4919954;28;83572;-57
2022/06/07 02:04:51;;;;;;;9.32;3.90;;;13.70;99.90;14.50;98731.00;;;;4918808;28;83256;-56
2022/06/07 02:07:19;;;;;;;6.50;3.15;;;14.20;99.90;14.60;98737.00;;;;4935924;28;83008;-56
2022/06/07 02:09:49;;;;;;;12.30;3.60;;;14.50;99.90;14.50;98731.00;;;;4918375;28;82529;-57
2022/06/07 02:12:17;;;;;;;7.90;3.08;;;14.30;99.90;14.60;98737.00;;;;4925383;28;82470;-55
2022/06/07 02:14:43;;;;;;;6.28;2.67;;;14.40;99.90;14.80;98731.00;;;;4931039;28;82297;-55
2022/06/07 02:17:09;;;;;;;8.70;3.28;;;14.50;99.90;14.80;98740.00;;;;4904586;28;82612;-58
2022/06/07 02:19:47;;;;;;;5.20;2.78;;;14.60;99.90;14.70;98736.00;;;;4912165;28;83044;-56
2022/06/07 02:22:16;;;;;;;8.88;2.95;;;14.50;99.90;14.60;98738.00;;;;4908501;28;82692;-56
2022/06/07 02:24:42;;;;;;;8.30;2.97;;;14.50;99.90;14.50;98742.00;;;;4914526;28;82311;-57
2022/06/07 02:27:18;;;;;;;7.38;2.72;;;14.30;99.90;14.50;98737.00;;;;4930785;28;83400;-56
2022/06/07 02:29:47;;;;;;;7.22;3.08;;;14.40;99.90;14.70;98744.00;;;;4929385;28;82294;-53
2022/06/07 02:32:20;;;;;;;9.15;3.13;;;14.50;99.90;14.90;98750.00;;;;4908588;28;83589;-55
2022/06/07 02:34:52;;;;;;;6.93;2.80;;;14.60;99.90;15.10;98734.00;;;;4903193;28;82222;-57
2022/06/07 02:37:18;;;;;;;;;;;14.80;99.90;14.90;98741.00;;;;4929742;28;81987;-56
2022/06/07 02:39:44;;;;;;;6.35;2.97;;;14.70;99.90;14.90;98734.00;;;;4925067;28;82419;-55
2022/06/07 02:42:14;;;;;;;7.00;3.00;;;14.70;99.90;15.20;98740.00;;;;4903460;28;83743;-54
2022/06/07 02:44:41;;;;;;;5.13;3.38;;;15.00;99.90;15.00;98747.00;;;;4923920;28;82954;-56
2022/06/07 02:47:07;;;;;;;5.97;2.40;;;14.90;99.90;15.10;98750.00;;;;4930296;28;82456;-56
2022/06/07 02:49:37;;;;;;;5.88;2.65;;;15.00;99.90;15.60;98753.00;;;;4913748;28;82852;-56
2022/06/07 02:52:05;;;;;;;7.22;2.75;;;15.30;99.90;15.80;98740.00;;;;4915615;28;82758;-56
2022/06/07 02:54:32;;;;;;;6.13;2.67;;;15.50;99.90;15.60;98752.00;;;;4922701;28;84786;-56
2022/06/07 02:56:59;;;;;;;5.55;2.55;;;15.50;99.90;15.50;98753.00;;;;4930419;28;83134;-56
2022/06/07 02:59:26;;;;;;;5.18;2.67;;;15.30;99.90;15.70;98744.00;;;;4910237;28;83252;-54
2022/06/07 03:01:52;;;;;;;6.47;2.40;;;15.50;99.90;15.80;98749.00;;;;4923232;28;82356;-56
2022/06/07 03:04:19;;;;;;;7.15;2.53;;;15.60;99.90;15.50;98755.00;;;;4922927;28;82787;-56
2022/06/07 03:06:45;;;;;;;5.55;2.67;;;15.30;99.90;15.60;98757.00;;;;4911935;28;82281;-56
2022/06/07 03:09:11;;;;;;;6.38;2.30;;;15.40;99.90;15.50;98757.00;;;;4914091;28;83741;-56
2022/06/07 03:11:38;;;;;;;4.70;2.28;;;15.30;99.90;15.30;98758.00;;;;4915869;28;82307;-57
2022/06/07 03:14:07;;;;;;;5.05;2.05;;;15.20;99.90;15.40;98756.00;;;;4907718;28;82351;-57
2022/06/07 03:16:33;;;;;;;8.40;2.60;;;15.30;99.90;15.50;98772.00;;;;4935545;28;82457;-55
2022/06/07 03:19:03;;;;;;;3.25;2.00;;;15.30;99.90;15.80;98759.00;;;;4930327;28;82074;-54
2022/06/07 03:21:34;;;;;;;7.95;3.17;;;15.50;99.90;16.30;98761.00;;;;4902143;28;85073;-63
2022/06/07 03:24:01;;;;;;;6.35;2.40;;;16.10;99.90;16.40;98755.00;;;;4934618;28;83290;-63
2022/06/07 03:26:29;;;;;;;5.03;2.90;;;16.10;99.90;16.70;98759.00;;;;4912991;28;82012;-64
2022/06/07 03:29:15;;;;;;;8.65;2.50;;;16.40;99.90;16.60;98758.00;;;;4915414;28;82495;-63
2022/06/07 03:31:42;;;;;;;9.27;2.38;;;16.30;99.90;17.00;98755.00;;;;4917405;28;81969;-61
2022/06/07 03:34:12;;;;;;;5.03;2.33;;;16.70;99.90;17.60;98761.00;;;;4901309;28;82276;-62
2022/06/07 03:36:40;;;;;;;7.85;2.67;;;17.10;99.90;17.50;98765.00;;;;4932955;28;83639;-62
2022/06/07 03:39:09;;;;;;;5.72;2.38;;;17.20;99.90;17.20;98763.00;;;;4935059;28;82322;-62
2022/06/07 03:41:41;;;;;;;9.52;2.20;;;16.90;99.90;16.70;98779.00;;;;4904008;28;82887;-62
2022/06/07 03:44:13;;;;;;;8.00;2.45;;;16.50;99.90;16.60;98776.00;;;;4906132;28;82483;-62
2022/06/07 03:46:46;;;;;;;;;;;16.50;99.90;17.10;98766.00;;;;4917067;28;83521;-62
2022/06/07 03:49:16;;;;;;;10.75;2.28;;;16.80;99.90;17.50;98774.00;;;;4924832;28;82240;-62
2022/06/07 03:51:42;;;;;;;5.05;2.25;;;17.20;99.90;17.40;98767.00;;;;4940123;28;82742;-62
2022/06/07 03:54:09;;;;;;;3.63;1.70;;;17.10;99.90;17.20;98773.00;;;;4917036;28;82119;-62
2022/06/07 03:56:36;;;;;;;8.45;1.88;;;16.90;99.90;17.10;98777.00;;;;4917959;28;82445;-63
2022/06/07 03:59:05;;;;;;;7.45;1.60;;;16.80;99.90;17.50;98784.00;;;;4922926;28;82292;-62
2022/06/07 04:01:31;;;;;;;6.68;1.73;;;17.20;99.90;17.10;98778.00;;;;4931353;28;82619;-63
2022/06/07 04:04:05;;;;;;;2.08;1.33;;;16.90;99.90;17.20;98784.00;;;;4926403;28;82842;-63
2022/06/07 04:06:41;;;;;;;3.50;1.80;;;16.90;99.90;17.10;98792.00;;;;4938880;28;81950;-62
2022/06/07 04:09:13;;;;;;;4.18;1.25;;;16.80;99.90;16.70;98779.00;;;;4917380;28;82423;-62
2022/06/07 04:11:44;;;;;;;4.65;1.80;;;16.50;99.90;17.50;98779.00;;;;4906839;28;83703;-62
2022/06/07 04:14:11;;;;;;;6.15;1.45;;;17.10;99.90;18.10;98781.00;;;;4925448;28;83209;-62
2022/06/07 04:16:37;;;;;;;5.65;1.58;;;17.70;99.90;17.90;98778.00;;;;4938072;28;81954;-62
2022/06/07 04:19:15;;;;;;;5.68;1.27;;;17.70;99.90;17.30;98788.00;;;;4934630;28;83511;-62
2022/06/07 04:21:41;;;;;;;5.38;1.20;;;17.00;99.90;16.80;98785.00;;;;4925459;28;82507;-62
2022/06/07 04:24:26;;;;;;;3.55;1.17;;;16.70;99.90;16.80;98780.00;;;;4916291;28;82447;-63
2022/06/07 04:26:53;;;;;;;3.03;1.05;;;16.70;99.90;17.60;98782.00;;;;4917034;28;82900;-62
2022/06/07 04:29:19;;;;;;;4.18;1.50;;;17.30;99.90;18.50;98784.00;;;;4900033;28;82085;-62
2022/06/07 04:31:47;;;;;;;3.50;1.30;;;18.00;99.90;18.70;98782.00;;;;4931793;28;82608;-62
2022/06/07 04:34:18;;;;;;;3.53;1.25;;;18.30;99.90;17.40;98788.00;;;;4915562;28;82350;-62
2022/06/07 04:36:45;;;;;;;6.20;1.15;;;17.30;99.90;16.70;98791.00;;;;4911768;28;83001;-61
2022/06/07 04:39:15;;;;;;;6.65;1.15;;;16.70;99.90;17.70;98788.00;;;;4909273;28;83600;-63
2022/06/07 04:41:55;;;;;;;2.78;1.20;;;17.40;99.90;17.70;98800.00;;;;4900498;28;82537;-62
2022/06/07 04:44:27;;;;;;;6.30;1.20;;;17.30;99.90;17.70;98791.00;;;;4907559;28;84575;-62
2022/06/07 04:46:54;;;;;;;5.07;1.80;;;17.40;99.90;17.50;98803.00;;;;4928431;28;82618;-62
2022/06/07 04:49:21;;;;;;;2.75;1.10;;;17.30;99.90;17.20;98802.00;;;;4932559;28;82766;-62
2022/06/07 04:51:48;;;;;;;3.95;1.10;;;17.00;99.90;17.40;98795.00;;;;4930456;28;82834;-62
2022/06/07 04:54:30;;;;;;;5.60;1.30;;;17.20;99.90;17.20;98791.00;;;;4917800;28;82363;-62
2022/06/07 04:56:59;;;;;;;3.88;1.20;;;17.00;99.90;17.80;98797.00;;;;4920833;28;82625;-62
2022/06/07 04:59:25;;;;;;;2.60;1.30;;;17.40;99.90;18.10;98788.00;;;;4914805;28;82173;-62
2022/06/07 05:02:00;;;;;;;6.07;1.20;;;17.70;99.90;18.60;98795.00;;;;4908848;28;83575;-62
2022/06/07 05:04:29;;;;;;;2.65;1.00;;;18.10;99.90;18.70;98797.00;;;;4916335;28;84309;-62
2022/06/07 05:06:59;;;;;;;6.10;1.23;;;18.20;99.90;19.10;98804.00;;;;4912523;28;82815;-62
2022/06/07 05:09:34;;;;;;;4.55;1.00;;;18.40;99.90;19.20;98803.00;;;;4934709;28;82239;-63
2022/06/07 05:12:12;;;;;;;2.83;1.00;;;18.60;99.80;19.30;98794.00;;;;4912712;28;82715;-61
2022/06/07 05:14:44;;;;;;;13.38;1.63;;;18.80;99.00;19.40;98799.00;;;;4927588;28;84164;-62
2022/06/07 05:17:12;;;;;;;2.97;0.98;;;18.80;99.40;19.90;98792.00;;;;4927222;28;82265;-62
2022/06/07 05:19:41;;;;;;;3.35;1.02;;;19.30;98.80;20.70;98793.00;;;;4915050;28;83243;-62
2022/06/07 05:22:12;;;;;;;3.30;1.33;;;19.90;97.90;19.80;98798.00;;;;4933826;28;82654;-62
2022/06/07 05:24:44;;;;;;;4.07;1.33;;;19.40;97.90;19.90;98802.00;;;;4915336;28;83360;-62
2022/06/07 05:27:19;;;;;;;5.47;1.42;;;19.50;97.30;19.70;98800.00;;;;4911974;28;83399;-62
2022/06/07 05:29:54;;;;;;;6.90;1.20;;;19.30;97.90;20.20;98805.00;;;;4930736;28;82566;-62
2022/06/07 05:32:33;;;;;;;6.57;1.35;;;19.60;98.00;20.50;98805.00;;;;4920360;28;83179;-62
2022/06/07 05:35:00;;;;;;;8.40;1.88;;;19.80;98.10;20.50;98797.00;;;;4902635;28;83475;-62
2022/06/07 05:37:26;;;;;;;10.82;1.95;;;19.90;98.20;19.80;98806.00;;;;4906726;28;83142;-62
2022/06/07 05:40:10;;;;;;;7.75;1.58;;;19.50;98.70;19.90;98787.00;;;;4904405;28;82236;-62
2022/06/07 05:42:38;;;;;;;5.97;1.70;;;19.40;98.20;20.00;98798.00;;;;4904239;28;84823;-63
2022/06/07 05:45:06;;;;;;;6.63;1.42;;;19.50;98.50;19.00;98810.00;;;;4891505;28;84903;-63
2022/06/07 05:47:33;;;;;;;7.15;1.25;;;18.80;96.80;19.00;98811.00;;;;4923234;28;82280;-61
2022/06/07 05:50:01;;;;;;;6.85;1.70;;;18.70;97.60;18.50;98806.00;;;;4912959;28;82637;-62
2022/06/07 05:52:29;;;;;;;6.55;1.70;;;18.30;98.40;18.50;98814.00;;;;4934707;28;83319;-62
2022/06/07 05:54:57;;;;;;;11.35;1.42;;;18.40;97.10;18.40;98802.00;;;;4922488;28;83249;-62
2022/06/07 05:57:23;;;;;;;4.00;0.90;;;18.20;96.20;18.80;98800.00;;;;4933185;28;81962;-62
2022/06/07 05:59:50;;;;;;;1.33;0.82;;;18.40;96.30;19.00;98800.00;;;;4907708;28;82285;-62
2022/06/07 06:02:18;;;;;;;3.97;0.90;;;18.60;96.10;18.80;98814.00;;;;4906278;28;82598;-62
2022/06/07 06:04:44;;;;;;;6.38;1.73;;;18.50;95.30;18.40;98807.00;;;;4923101;28;82457;-61
2022/06/07 06:07:12;;;;;;;6.88;1.63;;;18.20;95.10;18.50;98809.00;;;;4912041;28;82359;-61
2022/06/07 06:12:37;;;;;;;6.97;1.17;;;18.00;95.10;18.10;98803.00;;;;4922777;28;84513;-62
2022/06/07 06:15:12;;;;;;;5.45;0.93;;;17.90;95.50;18.70;98803.00;;;;4910208;28;82498;-62
2022/06/07 06:17:40;;;;;;;6.10;1.13;;;18.30;95.30;18.70;98807.00;;;;4922135;28;83004;-63
2022/06/07 06:20:19;;;;;;;7.07;1.33;;;18.30;95.00;18.80;98805.00;;;;4940388;28;82944;-60
2022/06/07 06:22:49;;;;;;;3.80;1.05;;;18.50;95.00;18.70;98797.00;;;;4939959;28;82809;-62
2022/06/07 06:25:16;;;;;;;1.73;1.08;;;18.40;95.50;18.70;98799.00;;;;4917995;28;83332;-62
2022/06/07 06:27:43;;;;;;;3.75;0.80;;;18.30;93.00;18.60;98797.00;;;;4901660;28;81970;-62
2022/06/07 06:30:13;;;;;;;1.80;0.75;;;18.20;94.30;18.00;98793.00;;;;4926488;28;83793;-62
2022/06/07 06:32:48;;;;;;;7.25;1.60;;;17.90;94.00;17.90;98793.00;;;;4914574;28;83585;-62
2022/06/07 06:35:19;;;;;;;2.33;0.85;;;17.80;94.10;17.70;98794.00;;;;4917404;28;82861;-62
2022/06/07 06:37:45;;;;;;;4.63;1.00;;;17.60;94.60;17.50;98791.00;;;;4934486;28;82604;-62
2022/06/07 06:40:13;;;;;;;5.00;1.95;;;17.50;93.70;17.10;98797.00;;;;4910648;28;83096;-61
2022/06/07 06:42:50;;;;;;;3.80;1.33;;;17.20;95.00;16.60;98792.00;;;;4930317;28;83470;-61
2022/06/07 06:45:29;;;;;;;3.42;1.10;;;16.70;95.40;16.80;98783.00;;;;4908815;28;83415;-61
2022/06/07 06:48:02;;;;;;;5.00;1.27;;;16.90;95.60;16.90;98804.00;;;;4913664;28;82031;-61
2022/06/07 06:50:30;;;;;;;5.28;1.10;;;17.00;95.20;16.90;98801.00;;;;4914502;28;82501;-61
2022/06/07 06:52:57;;;;;;;2.60;1.10;;;17.00;95.10;17.00;98778.00;;;;4923328;28;82560;-61
2022/06/07 06:55:24;;;;;;;3.20;1.20;;;17.20;96.40;17.10;98780.00;;;;4920825;28;83358;-62
2022/06/07 06:57:52;;;;;;;6.30;1.17;;;17.10;95.00;17.10;98784.00;;;;4930651;28;82242;-61
2022/06/07 07:00:19;;;;;;;2.72;1.17;;;17.20;95.20;16.90;98801.00;;;;4921605;28;82425;-61
2022/06/07 07:02:46;;;;;;;8.52;1.42;;;16.90;94.60;16.80;98788.00;;;;4914062;28;82657;-61
2022/06/07 07:05:17;;;;;;;7.80;1.10;;;16.90;95.50;16.80;98800.00;;;;4910633;28;83543;-62
2022/06/07 07:07:50;;;;;;;2.38;0.90;;;16.90;95.10;16.70;98793.00;;;;4894890;28;83559;-61
2022/06/07 07:10:23;;;;;;;6.10;1.15;;;16.80;93.80;16.70;98781.00;;;;4927295;28;82320;-61
2022/06/07 07:12:50;;;;;;;3.45;0.90;;;16.80;92.90;16.70;98784.00;;;;4929434;28;82645;-61
2022/06/07 07:15:20;;;;;;;8.52;1.13;;;16.80;92.70;16.50;98781.00;;;;4906008;28;83711;-61
2022/06/07 07:17:53;;;;;;;4.65;1.13;;;16.60;93.30;16.50;98797.00;;;;4893016;28;82192;-61
2022/06/07 07:20:21;;;;;;;6.47;1.13;;;16.50;92.70;16.60;98797.00;;;;4919259;28;83313;-62
2022/06/07 07:22:50;;;;;;;5.85;1.25;;;16.70;92.90;16.60;98783.00;;;;4922870;28;82359;-62
2022/06/07 07:25:18;;;;;;;5.00;0.90;;;16.60;92.30;16.50;98778.00;;;;4925856;28;82487;-61
2022/06/07 07:27:44;;;;;;;4.00;1.30;;;16.60;92.00;16.80;98773.00;;;;4924401;28;82471;-61
2022/06/07 07:30:13;;;;;;;4.07;0.95;;;16.90;92.80;17.00;98773.00;;;;4929881;28;82096;-60
2022/06/07 07:32:42;;;;;;;3.30;0.82;;;17.00;93.80;17.10;98799.00;;;;4913956;28;85370;-61
2022/06/07 07:35:09;;;;;;;5.78;1.25;;;17.20;91.90;17.20;98781.00;;;;4929554;28;83359;-62
2022/06/07 07:37:46;;;;;;;4.35;1.08;;;17.20;92.00;17.10;98771.00;;;;4918060;28;82479;-62
2022/06/07 07:40:15;;;;;;;4.50;1.20;;;17.10;90.70;17.00;98760.00;;;;4925674;28;82513;-62
2022/06/07 07:42:44;;;;;;;6.57;1.15;;;17.10;91.40;17.20;98765.00;;;;4929545;28;82883;-62
2022/06/07 07:45:17;;;;;;;5.07;0.88;;;17.20;91.90;17.00;98769.00;;;;4905529;28;82470;-62
2022/06/07 07:47:45;;;;;;;3.65;0.95;;;17.00;90.50;17.00;98770.00;;;;4915021;28;82049;-62
2022/06/07 07:50:12;;;;;;;5.63;1.00;;;17.00;90.70;17.10;98769.00;;;;4909871;28;82263;-62
2022/06/07 07:52:41;;;;;;;3.03;0.70;;;17.10;90.50;17.20;98774.00;;;;4933626;28;83480;-62
2022/06/07 07:55:11;;;;;;;3.50;0.80;;;17.20;90.90;17.10;98757.00;;;;4921095;28;82962;-62
2022/06/07 07:57:38;;;;;;;2.05;0.68;;;17.20;91.40;17.30;98771.00;;;;4895162;28;83432;-62
2022/06/07 08:00:09;;;;;;;2.97;1.05;;;17.40;91.00;17.50;98760.00;;;;4924002;28;82428;-62
2022/06/07 08:02:39;;;;;;;3.65;1.00;;;17.50;91.10;17.50;98748.00;;;;4915011;28;82417;-62
2022/06/07 08:05:15;;;;;;;3.80;0.90;;;17.60;90.90;17.50;98774.00;;;;4912217;28;82301;-62
2022/06/07 08:07:42;;;;;;;2.72;1.00;;;17.60;90.00;17.50;98768.00;;;;4915286;28;82232;-62
2022/06/07 08:10:09;;;;;;;1.92;0.75;;;17.60;90.30;17.20;98776.00;;;;4933153;28;82714;-62
2022/06/07 08:12:36;;;;;;;2.90;0.93;;;17.30;89.90;17.20;98765.00;;;;4929537;28;89010;-62
2022/06/07 08:15:02;;;;;;;5.35;0.80;;;17.20;90.30;17.20;98768.00;;;;4927135;28;87540;-61
2022/06/07 08:17:30;;;;;;;7.80;1.08;;;17.20;90.30;17.30;98763.00;;;;4936603;28;87491;-61
2022/06/07 08:19:56;;;;;;;2.70;0.95;;;17.30;90.50;17.40;98761.00;;;;4929357;28;87488;-60
2022/06/07 08:22:23;;;;;;;3.85;0.70;;;17.40;87.70;17.30;98755.00;;;;4923592;28;88840;-60
2022/06/07 08:24:49;;;;;;;6.32;1.40;;;17.20;86.90;17.40;98756.00;;;;4926614;28;88163;-61
2022/06/07 08:27:15;;;;;;;5.97;1.13;;;17.50;88.90;17.50;98755.00;;;;4927298;28;86968;-62
2022/06/07 08:29:41;;;;;;;3.50;0.88;;;17.40;85.80;17.50;98735.00;;;;4929516;28;87231;-60
2022/06/07 08:32:09;;;;;;;1.00;0.70;;;17.60;86.30;17.60;98762.00;;;;4930908;28;89662;-61
2022/06/07 08:37:36;;;;;;;5.43;1.08;;;17.70;87.90;17.60;98744.00;;;;4928835;28;87050;-62
2022/06/07 08:40:13;;;;;;;3.45;0.93;;;17.60;86.40;17.50;98768.00;;;;4931374;28;87737;-62
2022/06/07 08:42:52;;;;;;;5.75;0.82;;;17.50;86.50;17.70;98748.00;;;;4908053;28;87748;-62
2022/06/07 08:45:40;;;;;;;3.63;1.00;;;17.70;87.90;17.70;98753.00;;;;4912941;28;87443;-62
2022/06/07 08:48:15;;;;;;;2.00;1.08;;;17.60;86.10;17.80;98740.00;;;;4927610;28;88234;-62
2022/06/07 08:50:44;;;;;;;4.47;0.70;;;17.80;88.10;17.80;98745.00;;;;4914894;28;87378;-62
2022/06/07 08:53:28;;;;;;;3.35;1.00;;;17.80;85.70;17.90;98739.00;;;;4922294;28;87113;-62
2022/06/07 08:55:59;;;;;;;4.05;1.00;;;17.90;84.00;17.70;98743.00;;;;4905364;28;87580;-62
2022/06/07 08:58:33;;;;;;;4.72;1.45;;;17.60;83.20;17.80;98742.00;;;;4932994;28;87393;-62
2022/06/07 09:01:34;;;;;;;6.25;1.13;;;17.70;84.60;17.90;98727.00;;;;4932596;28;87546;-63
2022/06/07 09:04:29;;;;;;;4.80;0.82;;;17.90;85.50;18.00;98724.00;;;;4938188;28;87533;-61
2022/06/07 09:07:03;;;;;;;5.32;1.10;;;17.90;85.70;18.10;98721.00;;;;4924514;28;87822;-61
2022/06/07 09:12:28;;;;;;;5.40;0.90;;;17.90;83.00;18.00;98737.00;;;;4924801;28;87085;-60
2022/06/07 09:15:03;;;;;;;3.80;0.90;;;17.90;84.00;17.80;98730.00;;;;4916259;28;88809;-61
2022/06/07 09:17:38;;;;;;;6.15;1.33;;;17.70;82.60;17.90;98715.00;;;;4924411;28;89637;-61
2022/06/07 09:20:17;;;;;;;2.47;0.85;;;17.90;84.00;18.00;98716.00;;;;4931404;28;87328;-61
2022/06/07 09:23:11;;;;;;;3.22;0.82;;;18.00;86.80;17.80;98730.00;;;;4926083;28;87497;-62
2022/06/07 09:25:52;;;;;;;10.70;1.10;;;17.80;84.90;17.90;98718.00;;;;4930572;28;87085;-61
2022/06/07 09:28:27;;;;;;;5.80;1.00;;;17.80;86.30;18.10;98710.00;;;;4926135;28;87553;-61
2022/06/07 09:31:06;;;;;;;6.72;1.42;;;18.10;85.70;18.10;98715.00;;;;4922556;28;87316;-62
2022/06/07 09:33:56;;;;;;;3.05;1.10;;;18.10;84.20;18.20;98707.00;;;;4903726;28;86342;-62
2022/06/07 09:36:30;;;;;;;5.25;1.00;;;18.20;84.30;18.30;98705.00;;;;4924002;28;87630;-62
2022/06/07 09:39:06;;;;;;;6.57;0.90;;;18.30;82.40;18.40;98703.00;;;;4925883;28;88389;-62
2022/06/07 09:41:46;;;;;;;2.88;1.17;;;18.40;81.90;18.40;98709.00;;;;4905693;28;88354;-62
2022/06/07 09:44:21;;;;;;;4.00;0.80;;;18.40;82.50;18.50;98719.00;;;;4927601;28;87031;-61
2022/06/07 09:47:20;;;;;;;2.38;0.75;;;18.50;80.40;18.50;98712.00;;;;4921291;28;87893;-62
2022/06/07 09:49:59;;;;;;;3.70;1.10;;;18.50;78.00;18.30;98721.00;;;;4920499;28;87464;-62
2022/06/07 09:52:41;;;;;;;2.60;0.93;;;18.30;78.70;18.50;98712.00;;;;4918941;28;87126;-62
2022/06/07 09:55:16;;;;;;;;;;;18.40;79.70;18.40;98721.00;;;;4922984;28;87018;-61
2022/06/07 09:57:54;;;;;;;4.45;0.95;;;18.40;77.90;18.40;98706.00;;;;4901306;28;87060;-61
2022/06/07 10:00:36;;;;;;;1.88;0.75;;;18.40;73.10;18.50;98708.00;;;;4910597;28;88513;-61
2022/06/07 10:03:25;;;;;;;5.10;0.90;;;18.50;74.40;18.60;98698.00;;;;4904753;28;87326;-61
2022/06/07 10:06:27;;;;;;;1.85;0.80;;;18.60;73.60;18.70;98706.00;;;;4905200;28;87408;-61
2022/06/07 10:09:05;;;;;;;3.05;0.68;;;18.60;72.10;18.80;98702.00;;;;4935011;28;88623;-61
2022/06/07 10:12:01;;;;;;;4.03;0.95;;;18.80;75.30;18.80;98699.00;;;;4915013;28;88083;-61
2022/06/07 10:14:36;;;;;;;5.03;0.93;;;18.80;73.50;18.80;98687.00;;;;4897093;28;87187;-61
2022/06/07 10:17:29;;;;;;;5.43;1.10;;;18.80;73.50;18.60;98716.00;;;;4915559;28;87191;-61
2022/06/07 10:20:07;;;;;;;2.53;0.70;;;18.50;68.30;18.50;98716.00;;;;4928615;28;87753;-61
2022/06/07 10:22:45;;;;;;;5.57;0.70;;;18.50;67.70;18.60;98702.00;;;;4937889;28;87316;-63
2022/06/07 10:25:24;;;;;;;2.55;0.57;;;18.50;68.40;18.70;98710.00;;;;4911516;28;87031;-61
2022/06/07 10:28:20;;;;;;;5.97;0.80;;;18.60;69.70;18.50;98693.00;;;;4928467;28;86152;-62
2022/06/07 10:31:09;;;;;;;4.95;0.88;;;18.40;68.10;18.60;98710.00;;;;4927981;28;87563;-62
2022/06/07 10:34:05;;;;;;;4.13;0.80;;;18.50;70.50;18.60;98706.00;;;;4915587;28;87625;-61
2022/06/07 10:37:25;;;;;;;1.83;0.70;;;18.50;70.20;18.50;98697.00;;;;4908233;28;88264;-61
2022/06/07 10:40:15;;;;;;;0.88;0.50;;;18.40;66.70;18.60;98716.00;;;;4888997;28;88296;-62
2022/06/07 10:43:16;;;;;;;1.45;0.90;;;18.50;66.50;18.60;98688.00;;;;4907775;28;87699;-62
2022/06/07 10:45:44;;;;;;;;;;;18.50;66.20;18.60;98693.00;;;;4925997;28;87215;-61
2022/06/07 10:48:23;;;;;;;2.60;0.60;;;18.50;65.90;18.70;98676.00;;;;4908187;28;89640;-61
2022/06/07 10:54:07;;;;;;;1.88;0.70;;;18.70;65.30;18.80;98681.00;;;;4896639;28;87758;-61
2022/06/07 10:56:40;;;;;;;3.00;0.85;;;18.70;65.40;18.80;98691.00;;;;4924215;28;87373;-61
2022/06/07 10:59:21;;;;;;;2.38;0.70;;;18.80;65.10;18.80;98683.00;;;;4927146;28;88737;-62
2022/06/07 11:02:30;;;;;;;2.38;1.27;;;18.80;63.80;18.90;98682.00;;;;4926093;28;86970;-63
2022/06/07 11:11:11;;;;;;;2.40;0.63;;;19.00;65.10;18.70;98685.00;;;;4929413;28;87185;-62
2022/06/07 11:14:20;;;;;;;1.60;0.80;;;18.60;62.90;18.90;98675.00;;;;4893382;28;87172;-62
2022/06/07 11:17:21;;;;;;;0.88;0.52;;;18.80;64.20;19.00;98685.00;;;;4907829;28;87591;-63
2022/06/07 11:19:49;;;;;;;5.10;0.90;;;19.00;63.30;19.20;98686.00;;;;4913843;28;87369;-62
2022/06/07 11:22:22;;;;;;;5.47;0.75;;;19.10;67.90;19.20;98687.00;;;;4921081;28;86988;-62
2022/06/07 11:24:59;;;;;;;1.77;0.73;;;19.20;65.20;19.00;98688.00;;;;4909967;28;86870;-62
2022/06/07 11:27:28;;;;;;;1.75;0.80;;;19.00;61.80;19.00;98680.00;;;;4926688;28;87696;-62
2022/06/07 11:30:44;;;;;;;2.80;0.77;;;19.00;61.80;19.10;98658.00;;;;4927263;28;87791;-62
2022/06/07 11:33:38;;;;;;;1.55;0.85;;;19.00;62.90;19.10;98665.00;;;;4908128;28;88099;-61
2022/06/07 11:36:13;;;;;;;5.05;0.93;;;19.00;62.80;19.30;98667.00;;;;4922065;28;87288;-61
2022/06/07 11:38:55;;;;;;;2.13;0.77;;;19.20;66.00;19.40;98667.00;;;;4923905;28;86998;-62
2022/06/07 11:41:55;;;;;;;2.35;0.80;;;19.30;62.20;19.40;98656.00;;;;4928475;28;87485;-62
2022/06/07 11:45:39;;;;;;;3.10;1.00;;;19.30;63.20;19.50;98652.00;;;;4899082;28;87510;-62
2022/06/07 11:48:23;;;;;;;3.90;0.80;;;19.40;62.30;19.40;98674.00;;;;4861383;28;87455;-62